Aeroporto :
LOGIN :

Iscrizione | Disclaimer

   EN    FR    IT 

 










Sommario :    VFR   VFR Marginale   IFR   IFR Intensivo   IFR Molto Intensivo
Visibilità : 
Base nubi : 
>= 8 km
>= 3000ft
5 / 8 km
1000 / 3000 ft
1500m / 5 km
500 / 1000 ft
800 / 1500m
200 / 500 ft
< 800m
< 200 ft
Simboli :   Temporali  Nebbia  Neve Forte  Precipitazioni Forti  Vento > 20 kt
SIGMETs :   Varie  Temporali  Ghiacco  Turbolenza  Onda orograficha  Ceneri Vulcaniche






- Altitudine del aeroporto : 162 ft
- Codice IATA : BOD


LFBD - Bordeaux / Merignac

ULTIMO METAR :
  • 151030Z AUTO 05007KT 010V090 9999 ///CB 26/15 Q1013 BECMG NSC

METARs OBSOLETI :
  • 151000Z AUTO 03007KT 360V060 9999 ///CB 26/16 Q1013 NOSIG
  • 150930Z AUTO 05008KT 010V080 9999 ///CB 25/16 Q1013 NOSIG
  • 150900Z AUTO 36006KT 9999 ///CB 24/17 Q1013 NOSIG
  • 150830Z AUTO 02004KT 320V060 9999 FEW001/// BKN110/// BKN130/// ///CB 23/17 Q1014 NOSIG
  • 150800Z AUTO 05006KT 030V090 9999 ///TCU 22/17 Q1014 TEMPO 4000 TSRA SCT010 BKN060CB

TAF AMD TAF LFBD
Valido dal 15 a 09 ore il 16 a 12 ore UTC


150940Z 1509/1612 05005KT CAVOK TX29/1516Z TN17/1605Z
PROB30
TEMPO 1509/1512 -SHRA FEW060CB BKN080TCU
BECMG 1520/1522 30010KT
PROB40
TEMPO 1520/1602 SHRA BKN040TCU
PROB30
TEMPO 1520/1524 VRB20G30KT 2000 TSRA BKN010 BKN050CB
BECMG 1602/1604 24006KT
PROB30
TEMPO 1602/1608 SHRA BKN008 BKN060TCU
ATIS : +33 5 57 92 81 04



MetMap, La meteo Aeronautica in un colpo d'occhio ! - Copyright ORBIFLY Dicembre 2007 - Disclaimer

ORBIFLY MET'MAP TEAM :

Programmazione e sviluppo : Alexandra Zaïnal
Concezione : Baudouin d'Aumeries
Aiuto per la programmazione : Marc-Olivier Méhu
Supporto tecnico e logistico : Manuel Goepfert
Aiuto per la traduzione : Arnaldo La Scala

Contatto : metmap@orbifly.com




FONTI E CREDITI :

   NOAA